createdAt,value
2022-08-14T04:00:43.674Z,22.39
2022-08-14T04:01:41.475Z,22.31
2022-08-14T04:02:32.216Z,22.27
2022-08-14T04:03:30.152Z,22.30
2022-08-14T04:04:30.253Z,22.22
2022-08-14T04:05:43.092Z,22.24
2022-08-14T04:06:31.616Z,22.12
2022-08-14T04:07:32.840Z,22.17
2022-08-14T04:08:31.745Z,22.21
2022-08-14T04:09:30.083Z,22.20
2022-08-14T04:10:32.057Z,22.24
2022-08-14T04:11:35.104Z,22.21
2022-08-14T04:12:30.052Z,22.21
2022-08-14T04:13:31.955Z,22.21
2022-08-14T04:14:30.032Z,22.18
2022-08-14T04:15:30.046Z,22.24
2022-08-14T04:16:31.699Z,22.14
2022-08-14T04:17:30.812Z,22.07
2022-08-14T04:18:29.983Z,22.18
2022-08-14T04:19:33.020Z,22.27
2022-08-14T04:20:30.980Z,22.12
2022-08-14T04:21:30.797Z,22.10
2022-08-14T04:22:36.014Z,22.12
2022-08-14T04:23:32.824Z,22.06
2022-08-14T04:24:29.916Z,22.05
2022-08-14T04:25:29.903Z,21.91
2022-08-14T04:26:43.126Z,21.84
2022-08-14T04:27:30.881Z,21.77
2022-08-14T04:29:01.578Z,21.77
2022-08-14T04:29:30.861Z,21.71
2022-08-14T04:30:33.002Z,21.69
2022-08-14T04:33:00.981Z,21.75
2022-08-14T04:33:10.489Z,21.75
2022-08-14T04:33:35.834Z,21.79
2022-08-14T04:34:29.813Z,21.74
2022-08-14T04:35:56.313Z,21.69
2022-08-14T04:36:30.792Z,21.71
2022-08-14T04:37:30.768Z,21.75
2022-08-14T04:38:37.012Z,21.75
2022-08-14T04:39:30.774Z,21.71
2022-08-14T04:40:29.737Z,21.65
2022-08-14T04:41:30.493Z,21.67
2022-08-14T04:42:29.728Z,21.69
2022-08-14T04:43:38.628Z,21.79
2022-08-14T04:44:37.048Z,21.69
2022-08-14T04:45:29.899Z,21.69
2022-08-14T04:46:56.603Z,21.77
2022-08-14T04:47:30.976Z,21.83
2022-08-14T04:48:40.081Z,21.88
2022-08-14T04:49:30.634Z,21.83
2022-08-14T04:50:43.739Z,21.96
2022-08-14T04:51:46.305Z,21.88
2022-08-14T04:52:30.601Z,21.91
2022-08-14T04:53:34.543Z,21.96
2022-08-14T04:54:30.577Z,22.00
2022-08-14T04:55:34.587Z,22.06
2022-08-14T04:56:30.577Z,22.02
2022-08-14T04:57:29.545Z,22.09
2022-08-14T04:58:32.572Z,22.09
2022-08-14T04:59:29.522Z,22.07
2022-08-14T05:00:29.519Z,22.09
2022-08-14T05:01:29.562Z,22.24
2022-08-14T05:02:30.554Z,22.09
2022-08-14T05:03:29.479Z,22.07
2022-08-14T05:04:29.466Z,21.90
2022-08-14T05:05:29.453Z,21.91
2022-08-14T05:06:37.490Z,21.77
2022-08-14T05:07:46.997Z,21.79
2022-08-14T05:08:50.601Z,21.69
2022-08-14T05:09:30.588Z,21.67
2022-08-14T05:10:32.184Z,21.69
2022-08-14T05:11:29.400Z,21.71
2022-08-14T05:13:24.630Z,21.79
2022-08-14T05:13:38.371Z,21.72
2022-08-14T05:14:45.524Z,21.72
2022-08-14T05:15:32.138Z,21.74
2022-08-14T05:16:29.414Z,21.69
2022-08-14T05:17:44.018Z,21.71
2022-08-14T05:18:37.072Z,21.69
2022-08-14T05:19:32.695Z,21.69
2022-08-14T05:21:04.028Z,21.65
2022-08-14T05:21:56.031Z,21.58
2022-08-14T05:22:30.267Z,21.62
2022-08-14T05:23:29.254Z,21.59
2022-08-14T05:24:29.240Z,21.47
2022-08-14T05:25:30.997Z,21.59
2022-08-14T05:26:29.219Z,21.61
2022-08-14T05:27:31.026Z,21.59
2022-08-14T05:28:34.217Z,21.64
2022-08-14T05:29:29.182Z,21.69
2022-08-14T05:30:29.174Z,21.71
2022-08-14T05:31:30.250Z,21.68
2022-08-14T05:32:30.162Z,21.74
2022-08-14T05:33:29.143Z,21.79
2022-08-14T05:34:31.626Z,21.80
2022-08-14T05:35:29.115Z,21.80
2022-08-14T05:36:29.110Z,21.92
2022-08-14T05:37:29.834Z,21.94
2022-08-14T05:38:31.176Z,21.98
2022-08-14T05:39:34.248Z,22.06
2022-08-14T05:40:29.059Z,22.09
2022-08-14T05:41:52.448Z,22.14
2022-08-14T05:42:32.164Z,22.21
2022-08-14T05:43:40.704Z,22.25
2022-08-14T05:44:30.957Z,22.22
2022-08-14T05:45:29.004Z,22.25
2022-08-14T05:46:28.991Z,22.28
2022-08-14T05:47:33.901Z,22.20
2022-08-14T05:48:33.707Z,22.12
2022-08-14T05:49:33.183Z,22.18
2022-08-14T05:50:33.972Z,22.09
2022-08-14T05:51:28.936Z,22.18
2022-08-14T05:52:38.547Z,22.12
2022-08-14T05:53:29.913Z,22.21
2022-08-14T05:54:35.290Z,22.12
2022-08-14T05:55:29.891Z,22.20
2022-08-14T05:56:29.176Z,22.20
2022-08-14T05:57:28.885Z,22.10
2022-08-14T05:58:33.770Z,22.10
2022-08-14T05:59:36.676Z,22.22
2022-08-14T06:00:34.838Z,22.25
2022-08-14T06:01:34.920Z,22.46
2022-08-14T06:02:28.823Z,22.55
2022-08-14T06:03:28.802Z,22.61
2022-08-14T06:04:28.789Z,22.55
2022-08-14T06:05:29.475Z,22.61
2022-08-14T06:06:30.186Z,22.62
2022-08-14T06:07:28.770Z,22.65
2022-08-14T06:08:35.840Z,22.65
2022-08-14T06:09:29.868Z,22.95
2022-08-14T06:10:29.784Z,23.09
2022-08-14T06:11:31.216Z,23.05
2022-08-14T06:13:00.178Z,23.23
2022-08-14T06:13:31.508Z,23.40
2022-08-14T06:14:29.679Z,23.33
2022-08-14T06:15:30.633Z,23.42
2022-08-14T06:16:28.653Z,23.36
2022-08-14T06:17:28.654Z,23.33
2022-08-14T06:18:32.168Z,23.28
2022-08-14T06:19:28.625Z,23.28
2022-08-14T06:20:28.749Z,23.25
2022-08-14T06:21:28.604Z,23.28
2022-08-14T06:22:28.598Z,23.23
2022-08-14T06:23:33.605Z,23.22
2022-08-14T06:24:30.740Z,23.16
2022-08-14T06:25:29.553Z,23.16
2022-08-14T06:26:30.520Z,23.32
2022-08-14T06:27:33.971Z,23.53
2022-08-14T06:28:29.519Z,23.97
2022-08-14T06:29:32.469Z,24.37
2022-08-14T06:30:42.217Z,24.64
2022-08-14T06:31:29.503Z,24.80
2022-08-14T06:32:38.156Z,24.61
2022-08-14T06:33:30.077Z,24.61
2022-08-14T06:35:10.862Z,24.80
2022-08-14T06:35:29.442Z,24.84
2022-08-14T06:36:28.428Z,24.68
2022-08-14T06:37:28.433Z,24.69
2022-08-14T06:38:28.407Z,24.47
2022-08-14T06:39:36.946Z,24.47
2022-08-14T06:40:29.526Z,24.32
2022-08-14T06:41:56.722Z,24.32
2022-08-14T06:42:32.992Z,24.25
2022-08-14T06:43:31.928Z,24.21
2022-08-14T06:44:32.494Z,24.25
2022-08-14T06:45:33.351Z,24.10
2022-08-14T06:46:34.161Z,23.87
2022-08-14T06:47:29.326Z,23.88
2022-08-14T06:48:28.292Z,23.90
2022-08-14T06:49:28.284Z,23.88
2022-08-14T06:50:29.940Z,23.88
2022-08-14T06:51:44.586Z,23.87
2022-08-14T06:52:29.453Z,23.98
2022-08-14T06:53:28.636Z,24.16
2022-08-14T06:54:31.287Z,24.22
2022-08-14T06:55:29.402Z,24.21
2022-08-14T06:56:33.229Z,24.32
2022-08-14T06:57:28.214Z,24.40
2022-08-14T06:58:29.100Z,24.46
2022-08-14T06:59:28.173Z,24.52
2022-08-14T07:00:30.868Z,24.46
2022-08-14T07:01:28.252Z,24.20
2022-08-14T07:02:28.968Z,24.02
2022-08-14T07:03:28.132Z,24.06
2022-08-14T07:04:28.121Z,24.25
2022-08-14T07:05:28.101Z,24.12
2022-08-14T07:06:46.774Z,24.02
2022-08-14T07:07:34.103Z,23.98
2022-08-14T07:08:29.720Z,24.02
2022-08-14T07:09:28.314Z,24.03
2022-08-14T07:10:29.043Z,24.03
2022-08-14T07:11:28.046Z,24.02
2022-08-14T07:12:34.837Z,24.05
2022-08-14T07:13:30.463Z,24.10
2022-08-14T07:14:27.999Z,24.06
2022-08-14T07:15:28.516Z,23.98
2022-08-14T07:16:27.977Z,23.95
2022-08-14T07:17:27.976Z,24.09
2022-08-14T07:18:32.976Z,24.12
2022-08-14T07:19:27.943Z,24.08
2022-08-14T07:20:31.381Z,24.22
2022-08-14T07:21:27.930Z,24.25
2022-08-14T07:22:33.095Z,24.35
2022-08-14T07:23:31.152Z,24.52
2022-08-14T07:24:31.332Z,24.47
2022-08-14T07:25:32.220Z,24.55
2022-08-14T07:26:29.516Z,24.61
2022-08-14T07:27:27.855Z,24.62
2022-08-14T07:28:28.839Z,24.62
2022-08-14T07:29:32.856Z,24.68
2022-08-14T07:30:34.387Z,24.68
2022-08-14T07:31:28.820Z,24.76
2022-08-14T07:32:33.999Z,24.69
2022-08-14T07:33:29.199Z,24.76
2022-08-14T07:34:36.188Z,24.69
2022-08-14T07:35:37.360Z,24.81
2022-08-14T07:36:30.696Z,24.67
2022-08-14T07:37:27.746Z,24.73
2022-08-14T07:38:32.024Z,24.88
2022-08-14T07:39:28.792Z,24.85
2022-08-14T07:40:32.735Z,24.84
2022-08-14T07:41:33.925Z,24.85
2022-08-14T07:42:28.701Z,24.88
2022-08-14T07:43:27.674Z,24.99
2022-08-14T07:44:32.418Z,25.03
2022-08-14T07:45:28.651Z,25.00
2022-08-14T07:46:28.234Z,25.17
2022-08-14T07:47:27.650Z,25.21
2022-08-14T07:48:27.618Z,25.21
2022-08-14T07:49:27.607Z,25.24
2022-08-14T07:50:27.596Z,25.23
2022-08-14T07:51:36.665Z,25.24
2022-08-14T07:52:30.775Z,25.24
2022-08-14T07:53:27.568Z,25.39
2022-08-14T07:54:29.941Z,25.42
2022-08-14T07:55:29.018Z,25.52
2022-08-14T07:56:43.940Z,25.58
2022-08-14T07:57:28.532Z,25.57
2022-08-14T07:58:33.854Z,25.60
2022-08-14T07:59:41.114Z,25.70
2022-08-14T08:00:31.618Z,25.76
2022-08-14T08:01:29.992Z,25.77
2022-08-14T08:02:32.783Z,25.87
2022-08-14T08:03:27.976Z,25.97
2022-08-14T08:04:27.475Z,25.88
2022-08-14T08:05:27.432Z,25.90
2022-08-14T08:06:27.535Z,25.85
2022-08-14T08:07:30.142Z,25.90
2022-08-14T08:08:27.728Z,25.85
2022-08-14T08:09:31.890Z,25.91
2022-08-14T08:10:46.583Z,25.95
2022-08-14T08:11:28.382Z,25.97
2022-08-14T08:12:38.590Z,26.01
2022-08-14T08:13:33.367Z,26.01
2022-08-14T08:14:27.327Z,26.05
2022-08-14T08:15:27.317Z,26.07
2022-08-14T08:16:27.307Z,26.18
2022-08-14T08:17:27.305Z,26.26
2022-08-14T08:18:29.592Z,26.25
2022-08-14T08:19:27.273Z,26.26
2022-08-14T08:20:28.282Z,26.20
2022-08-14T08:21:27.260Z,26.25
2022-08-14T08:22:28.252Z,26.23
2022-08-14T08:23:28.303Z,26.36
2022-08-14T08:24:33.257Z,26.37
2022-08-14T08:25:27.211Z,26.28
2022-08-14T08:26:27.195Z,26.30
2022-08-14T08:27:27.224Z,26.35
2022-08-14T08:28:27.271Z,26.39
2022-08-14T08:29:28.918Z,26.37
2022-08-14T08:30:27.193Z,26.45
2022-08-14T08:31:32.937Z,26.58
2022-08-14T08:32:30.008Z,26.52
2022-08-14T08:33:32.123Z,26.66
2022-08-14T08:34:28.104Z,26.70
2022-08-14T08:35:46.124Z,26.70
2022-08-14T08:36:29.878Z,26.88
2022-08-14T08:37:30.734Z,26.88
2022-08-14T08:39:15.437Z,26.91
2022-08-14T08:39:30.747Z,26.89
2022-08-14T08:40:31.426Z,26.88
2022-08-14T08:41:27.027Z,26.85
2022-08-14T08:42:31.381Z,26.88
2022-08-14T08:43:27.018Z,26.89
2022-08-14T08:44:31.989Z,26.89
2022-08-14T08:45:27.984Z,26.91
2022-08-14T08:46:31.994Z,26.92
2022-08-14T08:47:26.974Z,27.02
2022-08-14T08:48:31.384Z,27.07
2022-08-14T08:49:27.938Z,27.13
2022-08-14T08:50:31.230Z,27.12
2022-08-14T08:51:31.255Z,27.06
2022-08-14T08:52:30.857Z,27.19
2022-08-14T08:53:26.909Z,27.21
2022-08-14T08:54:31.063Z,27.21
2022-08-14T08:55:26.882Z,27.34
2022-08-14T08:56:30.784Z,27.34
2022-08-14T08:57:32.876Z,27.44
2022-08-14T08:58:26.849Z,27.47
2022-08-14T08:59:27.160Z,27.59
2022-08-14T09:00:27.220Z,27.60
2022-08-14T09:01:26.868Z,27.63
2022-08-14T09:02:27.590Z,27.78
2022-08-14T09:03:27.283Z,27.79
2022-08-14T09:04:26.780Z,27.72
2022-08-14T09:05:26.764Z,27.84
2022-08-14T09:07:00.447Z,27.82
2022-08-14T09:07:27.807Z,27.77
2022-08-14T09:08:32.651Z,27.66
2022-08-14T09:09:26.716Z,27.62
2022-08-14T09:10:27.703Z,27.60
2022-08-14T09:11:27.110Z,27.59
2022-08-14T09:12:26.890Z,27.65
2022-08-14T09:13:26.683Z,27.67
2022-08-14T09:14:26.661Z,27.66
2022-08-14T09:15:26.652Z,27.84
2022-08-14T09:16:27.636Z,27.79
2022-08-14T09:17:26.629Z,27.93
2022-08-14T09:18:26.624Z,27.93
2022-08-14T09:19:31.627Z,27.84
2022-08-14T09:20:29.844Z,27.85
2022-08-14T09:21:31.509Z,27.93
2022-08-14T09:22:35.484Z,27.96
2022-08-14T09:23:34.841Z,27.94
2022-08-14T09:24:35.254Z,28.07
2022-08-14T09:26:01.476Z,28.18
2022-08-14T09:26:28.642Z,28.29
2022-08-14T09:27:26.515Z,28.33
2022-08-14T09:28:26.512Z,28.44
2022-08-14T09:29:28.747Z,28.49
2022-08-14T09:30:33.536Z,28.61
2022-08-14T09:31:26.471Z,28.52
2022-08-14T09:33:08.494Z,28.62
2022-08-14T09:33:27.457Z,28.59
2022-08-14T09:34:27.020Z,28.52
2022-08-14T09:35:27.767Z,28.56
2022-08-14T09:36:26.413Z,28.59
2022-08-14T09:37:26.405Z,28.64
2022-08-14T09:38:27.459Z,28.61
2022-08-14T09:39:26.408Z,28.61
2022-08-14T09:40:26.370Z,28.70
2022-08-14T09:41:36.830Z,28.66
2022-08-14T09:42:33.400Z,28.55
2022-08-14T09:43:27.353Z,28.58
2022-08-14T09:44:26.325Z,28.67
2022-08-14T09:45:26.320Z,28.78
2022-08-14T09:46:26.304Z,28.86
2022-08-14T09:47:26.294Z,28.90
2022-08-14T09:48:29.359Z,28.95
2022-08-14T09:49:26.271Z,29.11
2022-08-14T09:50:26.748Z,29.14
2022-08-14T09:51:26.252Z,29.09
2022-08-14T09:52:34.175Z,29.16
2022-08-14T09:54:12.704Z,29.21
2022-08-14T09:54:27.231Z,29.30
2022-08-14T09:55:26.217Z,29.30
2022-08-14T09:56:30.364Z,29.24
2022-08-14T09:57:27.515Z,29.30
2022-08-14T09:58:26.172Z,29.43
2022-08-14T09:59:26.169Z,29.68
2022-08-14T10:00:30.464Z,29.76
2022-08-14T10:01:26.153Z,29.89
2022-08-14T10:02:27.996Z,30.05
2022-08-14T10:03:33.429Z,30.15
2022-08-14T10:04:34.965Z,30.04
2022-08-14T10:05:27.119Z,30.10
2022-08-14T10:06:28.303Z,29.92
2022-08-14T10:07:26.073Z,30.16
2022-08-14T10:08:26.826Z,30.08
2022-08-14T10:09:26.063Z,30.08
2022-08-14T10:10:27.041Z,30.10
2022-08-14T10:11:31.089Z,30.04
2022-08-14T10:12:29.159Z,29.82
2022-08-14T10:13:26.021Z,29.58
2022-08-14T10:14:34.935Z,29.58
2022-08-14T10:15:29.774Z,29.57
2022-08-14T10:16:33.334Z,29.78
2022-08-14T10:17:25.986Z,29.73
2022-08-14T10:18:25.981Z,29.76
2022-08-14T10:19:25.956Z,29.80
2022-08-14T10:20:42.134Z,29.79
2022-08-14T10:21:26.919Z,29.79
2022-08-14T10:23:13.183Z,29.80
2022-08-14T10:23:27.136Z,29.90
2022-08-14T10:24:31.051Z,29.86
2022-08-14T10:25:26.875Z,29.80
2022-08-14T10:26:28.021Z,29.89
2022-08-14T10:27:26.523Z,29.92
2022-08-14T10:29:03.646Z,29.97
2022-08-14T10:29:31.867Z,30.01
2022-08-14T10:30:26.332Z,29.95
2022-08-14T10:31:26.971Z,30.01
2022-08-14T10:32:28.291Z,30.01
2022-08-14T10:33:25.787Z,30.04
2022-08-14T10:34:33.384Z,30.11
2022-08-14T10:35:31.702Z,30.02
2022-08-14T10:36:34.758Z,30.01
2022-08-14T10:37:27.159Z,30.04
2022-08-14T10:38:25.734Z,30.17
2022-08-14T10:39:25.844Z,30.22
2022-08-14T10:40:37.433Z,30.17
2022-08-14T10:41:31.844Z,30.17
2022-08-14T10:42:31.723Z,30.16
2022-08-14T10:43:25.930Z,30.16
2022-08-14T10:44:29.823Z,30.20
2022-08-14T10:45:25.828Z,30.29
2022-08-14T10:47:40.422Z,30.29
2022-08-14T10:47:41.429Z,30.32
2022-08-14T10:48:36.516Z,30.42
2022-08-14T10:49:26.623Z,30.31
2022-08-14T10:50:25.604Z,30.32
2022-08-14T10:51:25.591Z,30.35
2022-08-14T10:52:25.633Z,30.31
2022-08-14T10:53:25.568Z,30.45
2022-08-14T10:54:35.826Z,30.51
2022-08-14T10:55:31.572Z,30.65
2022-08-14T10:56:33.779Z,30.72
2022-08-14T10:57:26.553Z,30.55
2022-08-14T10:58:25.516Z,30.51
2022-08-14T10:59:34.838Z,30.62
2022-08-14T11:00:30.036Z,30.70
2022-08-14T11:01:26.481Z,30.79
2022-08-14T11:02:45.192Z,30.79
2022-08-14T11:03:56.308Z,30.79
2022-08-14T11:04:27.803Z,30.82
2022-08-14T11:05:25.466Z,30.77
2022-08-14T11:06:25.430Z,30.84
2022-08-14T11:07:25.418Z,30.91
2022-08-14T11:08:30.427Z,30.95
2022-08-14T11:09:26.409Z,30.95
2022-08-14T11:10:26.411Z,30.91
2022-08-14T11:11:25.371Z,30.84
2022-08-14T11:12:34.676Z,30.79
2022-08-14T11:13:26.357Z,30.70
2022-08-14T11:14:26.565Z,30.70
2022-08-14T11:15:25.327Z,30.79
2022-08-14T11:16:25.329Z,30.83
2022-08-14T11:17:25.344Z,30.88
2022-08-14T11:18:30.232Z,30.97
2022-08-14T11:19:26.302Z,30.99
2022-08-14T11:20:25.283Z,30.97
2022-08-14T11:21:30.491Z,30.97
2022-08-14T11:22:52.365Z,30.92
2022-08-14T11:23:26.264Z,30.83
2022-08-14T11:24:55.286Z,30.82
2022-08-14T11:25:36.918Z,30.92
2022-08-14T11:26:26.209Z,30.95
2022-08-14T11:27:33.094Z,30.80
2022-08-14T11:28:46.906Z,30.84
2022-08-14T11:29:26.889Z,30.77
2022-08-14T11:30:50.273Z,30.88
2022-08-14T11:31:26.159Z,30.91
2022-08-14T11:32:26.149Z,31.07
2022-08-14T11:33:25.135Z,31.09
2022-08-14T11:34:33.744Z,30.98
2022-08-14T11:35:25.132Z,30.97
2022-08-14T11:36:35.322Z,30.98
2022-08-14T11:37:39.365Z,30.99
2022-08-14T11:38:26.089Z,30.92
2022-08-14T11:39:34.738Z,31.04
2022-08-14T11:40:29.288Z,31.06
2022-08-14T11:41:25.046Z,31.04
2022-08-14T11:42:57.622Z,31.01
2022-08-14T11:43:29.563Z,31.09
2022-08-14T11:44:45.612Z,31.19
2022-08-14T11:45:26.010Z,31.35
2022-08-14T11:46:29.618Z,31.39
2022-08-14T11:47:35.228Z,31.44
2022-08-14T11:49:03.521Z,31.50
2022-08-14T11:49:25.991Z,31.46
2022-08-14T11:50:36.126Z,31.58
2022-08-14T11:51:25.936Z,31.47
2022-08-14T11:52:24.942Z,31.39
2022-08-14T11:53:24.913Z,31.43
2022-08-14T11:54:34.185Z,31.47
2022-08-14T11:55:26.204Z,31.51
2022-08-14T11:56:25.737Z,31.48
2022-08-14T11:57:24.869Z,31.53
2022-08-14T11:58:24.860Z,31.68
2022-08-14T11:59:26.429Z,31.72
2022-08-14T12:00:31.606Z,31.73
2022-08-14T12:01:24.848Z,31.78
2022-08-14T12:03:01.184Z,31.81
2022-08-14T12:03:37.190Z,31.84
2022-08-14T12:04:33.008Z,32.03
2022-08-14T12:05:25.794Z,32.19
2022-08-14T12:06:29.025Z,32.29
2022-08-14T12:07:25.761Z,32.51
2022-08-14T12:08:24.799Z,32.87
2022-08-14T12:09:25.749Z,33.68
2022-08-14T12:10:27.312Z,34.46
2022-08-14T12:11:25.719Z,34.84
2022-08-14T12:12:35.619Z,35.21
2022-08-14T12:13:30.916Z,35.07
2022-08-14T12:14:30.188Z,35.37
2022-08-14T12:15:25.713Z,35.55
2022-08-14T12:16:24.696Z,35.81
2022-08-14T12:17:24.656Z,35.34
2022-08-14T12:18:24.657Z,35.22
2022-08-14T12:19:24.637Z,35.65
2022-08-14T12:20:30.224Z,35.34
2022-08-14T12:21:25.753Z,35.56
2022-08-14T12:22:30.150Z,35.82
2022-08-14T12:23:24.730Z,35.62
2022-08-14T12:24:36.174Z,35.97
2022-08-14T12:25:25.584Z,36.32
2022-08-14T12:26:40.015Z,36.81
2022-08-14T12:27:25.553Z,36.66
2022-08-14T12:28:27.401Z,36.71
2022-08-14T12:29:25.533Z,36.53
2022-08-14T12:30:24.537Z,36.68
2022-08-14T12:31:24.524Z,36.73
2022-08-14T12:32:24.504Z,36.49
2022-08-14T12:33:25.324Z,36.69
2022-08-14T12:34:24.483Z,36.28
2022-08-14T12:35:24.491Z,36.37
2022-08-14T12:36:25.305Z,36.65
2022-08-14T12:37:29.474Z,35.94
2022-08-14T12:38:24.459Z,35.97
2022-08-14T12:39:24.492Z,36.31
2022-08-14T12:40:24.441Z,36.76
2022-08-14T12:41:28.014Z,36.28
2022-08-14T12:42:27.301Z,36.87
2022-08-14T12:43:25.390Z,37.05
2022-08-14T12:44:24.382Z,36.90
2022-08-14T12:45:24.381Z,36.72
2022-08-14T12:46:27.502Z,36.29
2022-08-14T12:47:24.352Z,36.29
2022-08-14T12:48:32.052Z,36.23
2022-08-14T12:49:26.011Z,35.87
2022-08-14T12:50:24.334Z,35.38
2022-08-14T12:51:27.099Z,34.72
2022-08-14T12:52:30.657Z,34.28
2022-08-14T12:53:25.290Z,34.12
2022-08-14T12:54:28.700Z,34.10
2022-08-14T12:55:32.624Z,33.90
2022-08-14T12:56:33.851Z,33.73
2022-08-14T12:57:25.253Z,33.53
2022-08-14T12:58:35.503Z,33.23
2022-08-14T12:59:30.246Z,32.96
2022-08-14T13:00:24.505Z,32.96
2022-08-14T13:01:24.271Z,32.84
2022-08-14T13:02:25.423Z,32.75
2022-08-14T13:03:24.198Z,32.77
2022-08-14T13:04:24.174Z,32.52
2022-08-14T13:05:24.175Z,32.62
2022-08-14T13:06:24.201Z,32.56
2022-08-14T13:07:24.305Z,32.56
2022-08-14T13:08:34.075Z,32.51
2022-08-14T13:09:25.121Z,32.67
2022-08-14T13:10:51.204Z,32.55
2022-08-14T13:11:25.119Z,32.57
2022-08-14T13:12:34.801Z,32.60
2022-08-14T13:13:25.931Z,32.51
2022-08-14T13:14:29.822Z,32.50
2022-08-14T13:15:25.055Z,32.52
2022-08-14T13:16:33.470Z,32.48
2022-08-14T13:17:25.033Z,32.51
2022-08-14T13:18:24.025Z,32.37
2022-08-14T13:19:24.426Z,32.44
2022-08-14T13:20:24.493Z,32.55
2022-08-14T13:21:24.027Z,32.57
2022-08-14T13:22:33.172Z,32.52
2022-08-14T13:23:31.918Z,32.48
2022-08-14T13:24:23.988Z,32.47
2022-08-14T13:25:23.980Z,32.38
2022-08-14T13:26:23.950Z,32.29
2022-08-14T13:27:23.962Z,32.44
2022-08-14T13:28:32.847Z,32.48
2022-08-14T13:29:24.905Z,32.45
2022-08-14T13:30:24.339Z,32.47
2022-08-14T13:31:24.134Z,32.47
2022-08-14T13:32:24.874Z,32.33
2022-08-14T13:33:23.863Z,32.40
2022-08-14T13:34:23.882Z,32.45
2022-08-14T13:35:23.862Z,32.41
2022-08-14T13:36:51.588Z,32.44
2022-08-14T13:37:24.841Z,32.35
2022-08-14T13:38:23.835Z,32.32
2022-08-14T13:39:23.820Z,32.32
2022-08-14T13:40:26.032Z,32.45
2022-08-14T13:41:31.903Z,32.50
2022-08-14T13:42:24.766Z,32.51
2022-08-14T13:43:23.754Z,32.52
2022-08-14T13:44:24.250Z,32.57
2022-08-14T13:45:23.734Z,32.59
2022-08-14T13:46:26.385Z,32.59
2022-08-14T13:47:23.712Z,32.55
2022-08-14T13:48:33.090Z,32.69
2022-08-14T13:49:29.710Z,32.59
2022-08-14T13:50:23.708Z,32.60
2022-08-14T13:51:23.702Z,32.57
2022-08-14T13:52:59.116Z,32.56
2022-08-14T13:53:24.646Z,32.55
2022-08-14T13:54:23.645Z,32.59
2022-08-14T13:55:23.624Z,32.55
2022-08-14T13:56:36.299Z,32.62
2022-08-14T13:57:30.155Z,32.69
2022-08-14T13:58:33.659Z,32.59
2022-08-14T13:59:37.658Z,32.52
2022-08-14T14:00:32.338Z,32.52
2022-08-14T14:01:24.650Z,32.52
2022-08-14T14:02:31.877Z,32.56
2022-08-14T14:03:24.567Z,32.50
2022-08-14T14:04:23.552Z,32.59
2022-08-14T14:05:23.521Z,32.59
2022-08-14T14:06:23.519Z,32.59
2022-08-14T14:07:23.768Z,32.56
2022-08-14T14:08:46.659Z,32.56
2022-08-14T14:09:24.474Z,32.56
2022-08-14T14:10:28.224Z,32.56
2022-08-14T14:11:24.462Z,32.52
2022-08-14T14:12:37.482Z,32.57
2022-08-14T14:13:24.430Z,32.65
2022-08-14T14:14:45.134Z,32.72
2022-08-14T14:15:48.717Z,32.62
2022-08-14T14:16:30.289Z,32.60
2022-08-14T14:17:24.424Z,32.66
2022-08-14T14:18:34.534Z,32.62
2022-08-14T14:19:24.365Z,32.66
2022-08-14T14:20:35.344Z,32.65
2022-08-14T14:21:24.360Z,32.66
2022-08-14T14:22:35.310Z,32.74
2022-08-14T14:23:24.321Z,32.70
2022-08-14T14:24:23.313Z,32.77
2022-08-14T14:25:23.302Z,32.79
2022-08-14T14:26:24.246Z,32.81
2022-08-14T14:27:39.905Z,32.84
2022-08-14T14:28:29.856Z,32.84
2022-08-14T14:29:24.139Z,32.65
2022-08-14T14:30:52.368Z,32.81
2022-08-14T14:31:24.234Z,32.69
2022-08-14T14:32:27.090Z,32.78
2022-08-14T14:33:45.262Z,32.78
2022-08-14T14:34:30.145Z,32.78
2022-08-14T14:35:32.783Z,32.57
2022-08-14T14:36:24.181Z,32.57
2022-08-14T14:37:23.184Z,32.59
2022-08-14T14:38:27.594Z,32.55
2022-08-14T14:39:24.203Z,32.60
2022-08-14T14:40:53.107Z,32.67
2022-08-14T14:41:37.787Z,32.65
2022-08-14T14:42:31.864Z,32.72
2022-08-14T14:43:24.128Z,32.72
2022-08-14T14:44:23.099Z,32.70
2022-08-14T14:45:23.083Z,32.67
2022-08-14T14:46:36.642Z,32.72
2022-08-14T14:47:24.073Z,32.74
2022-08-14T14:48:23.053Z,32.79
2022-08-14T14:49:25.914Z,32.74
2022-08-14T14:50:24.880Z,32.66
2022-08-14T14:51:23.018Z,32.62
2022-08-14T14:52:26.716Z,32.57
2022-08-14T14:53:22.996Z,32.59
2022-08-14T14:54:31.143Z,32.62
2022-08-14T14:55:22.998Z,32.52
2022-08-14T14:56:51.278Z,32.66
2022-08-14T14:57:27.764Z,32.55
2022-08-14T14:58:23.940Z,32.66
2022-08-14T14:59:22.931Z,32.50
2022-08-14T15:00:22.919Z,32.38
2022-08-14T15:01:22.951Z,32.35
2022-08-14T15:02:22.911Z,32.30
2022-08-14T15:03:22.889Z,32.40
2022-08-14T15:04:22.930Z,32.50
2022-08-14T15:05:22.868Z,32.44
2022-08-14T15:06:22.854Z,32.50
2022-08-14T15:07:29.796Z,32.48
2022-08-14T15:08:26.718Z,32.43
2022-08-14T15:09:24.007Z,32.47
2022-08-14T15:10:27.480Z,32.48
2022-08-14T15:11:23.804Z,32.45
2022-08-14T15:12:55.663Z,32.44
2022-08-14T15:13:23.781Z,32.48
2022-08-14T15:14:57.183Z,32.48
2022-08-14T15:15:23.758Z,32.45
2022-08-14T15:16:22.745Z,32.52
2022-08-14T15:17:22.752Z,32.52
2022-08-14T15:18:36.990Z,32.50
2022-08-14T15:19:23.715Z,32.50
2022-08-14T15:20:30.527Z,32.44
2022-08-14T15:21:22.834Z,32.50
2022-08-14T15:22:22.717Z,32.43
2022-08-14T15:23:22.906Z,32.40
2022-08-14T15:24:26.598Z,32.47
2022-08-14T15:25:22.648Z,32.52
2022-08-14T15:26:24.000Z,32.52
2022-08-14T15:27:26.509Z,32.57
2022-08-14T15:28:23.233Z,32.62
2022-08-14T15:29:22.606Z,32.52
2022-08-14T15:30:24.433Z,32.65
2022-08-14T15:31:23.582Z,32.65
2022-08-14T15:32:23.472Z,32.72
2022-08-14T15:33:27.588Z,32.67
2022-08-14T15:34:45.398Z,32.67
2022-08-14T15:35:25.722Z,32.66
2022-08-14T15:36:25.991Z,32.62
2022-08-14T15:37:23.529Z,32.69
2022-08-14T15:38:22.512Z,32.60
2022-08-14T15:39:23.550Z,32.56
2022-08-14T15:40:22.778Z,32.60
2022-08-14T15:41:22.477Z,32.60
2022-08-14T15:42:22.481Z,32.67
2022-08-14T15:43:22.571Z,32.55
2022-08-14T15:44:25.824Z,32.55
2022-08-14T15:45:22.432Z,32.60
2022-08-14T15:46:42.785Z,32.45
2022-08-14T15:47:27.683Z,32.41
2022-08-14T15:48:23.459Z,32.45
2022-08-14T15:49:22.390Z,32.41
2022-08-14T15:50:22.378Z,32.38
2022-08-14T15:51:27.413Z,32.32
2022-08-14T15:52:32.826Z,32.35
2022-08-14T15:53:23.347Z,32.32
2022-08-14T15:54:22.347Z,32.35
2022-08-14T15:55:22.323Z,32.37
2022-08-14T15:56:42.026Z,32.29
2022-08-14T15:57:23.315Z,32.26
2022-08-14T15:58:22.299Z,32.35
2022-08-14T15:59:27.313Z,32.26
2022-08-14T16:00:40.922Z,32.29
2022-08-14T16:01:50.806Z,32.30
2022-08-14T16:02:24.603Z,32.33
2022-08-14T16:03:27.366Z,32.28
2022-08-14T16:04:23.779Z,32.38
2022-08-14T16:05:22.939Z,32.23
2022-08-14T16:06:22.201Z,32.38
2022-08-14T16:07:25.119Z,32.30
2022-08-14T16:08:28.821Z,32.32
2022-08-14T16:09:23.174Z,32.23
2022-08-14T16:10:29.912Z,32.26
2022-08-14T16:11:23.148Z,32.30
2022-08-14T16:12:41.880Z,32.29
2022-08-14T16:13:42.042Z,32.29
2022-08-14T16:14:24.223Z,32.30
2022-08-14T16:15:22.105Z,32.29
2022-08-14T16:16:50.690Z,32.29
2022-08-14T16:17:23.095Z,32.21
2022-08-14T16:18:22.072Z,32.23
2022-08-14T16:19:23.502Z,32.21
2022-08-14T16:20:41.035Z,32.19
2022-08-14T16:21:23.052Z,32.18
2022-08-14T16:22:57.221Z,32.18
2022-08-14T16:23:23.026Z,32.19
2022-08-14T16:24:27.770Z,32.19
2022-08-14T16:25:34.460Z,32.15
2022-08-14T16:26:23.020Z,32.21
2022-08-14T16:27:39.170Z,32.11
2022-08-14T16:28:27.804Z,32.10
2022-08-14T16:29:22.953Z,32.13
2022-08-14T16:30:27.484Z,32.18
2022-08-14T16:31:22.944Z,32.11
2022-08-14T16:32:32.937Z,32.10
2022-08-14T16:33:56.633Z,32.03
2022-08-14T16:34:46.032Z,32.08
2022-08-14T16:35:22.887Z,32.03
2022-08-14T16:36:30.843Z,32.03
2022-08-14T16:37:22.864Z,32.03
2022-08-14T16:38:45.941Z,32.01
2022-08-14T16:39:22.950Z,32.00
2022-08-14T16:40:21.858Z,31.91
2022-08-14T16:41:23.681Z,31.91
2022-08-14T16:43:02.913Z,31.95
2022-08-14T16:43:22.803Z,31.92
2022-08-14T16:44:31.566Z,31.92
2022-08-14T16:45:23.441Z,31.89
2022-08-14T16:46:22.515Z,31.93
2022-08-14T16:47:22.524Z,31.86
2022-08-14T16:48:57.980Z,31.93
2022-08-14T16:49:22.735Z,31.89
2022-08-14T16:50:43.710Z,31.86
2022-08-14T16:51:27.962Z,31.91
2022-08-14T16:52:25.542Z,31.88